Terminal Aerodrome Forecast
Issued by NWS

Home | Current Version | Previous Version | Text Only | Print | Product List | Glossary On
Versions: 1 2 3 4 5 6 7 8 9 10 11 12 13 14 15 16 17 18 19 20 21 22 23 24 25
847
FTUS43 KOAX 251337 AAA
TAFCDR
TAF AMD
KCDR 251337Z 2514/2612 06006KT P6SM SCT002 OVC005
      TEMPO 2514/2516 1SM BR BKN002
     FM251600 03006KT P6SM SCT010 BKN021
     FM252100 05006KT P6SM VCSH SCT025 BKN040=

USA.gov is the U.S. government's official web portal to all federal, state and local government web resources and services.